createdAt,value
2022-08-14T00:03:05.469Z,150594.63
2022-08-14T00:08:14.502Z,150620.53
2022-08-14T00:13:21.079Z,150637.38
2022-08-14T00:18:30.463Z,150672.34
2022-08-14T00:23:53.943Z,150659.41
2022-08-14T00:28:58.903Z,150616.66
2022-08-14T00:34:36.957Z,150654.19
2022-08-14T00:39:25.842Z,150641.25
2022-08-14T00:44:32.872Z,150621.81
2022-08-14T00:49:42.818Z,150628.31
2022-08-14T00:54:58.282Z,150563.50
2022-08-14T01:00:05.810Z,150593.34
2022-08-14T01:05:51.083Z,150601.09
2022-08-14T01:10:55.659Z,150610.16
2022-08-14T01:16:03.400Z,150573.88
2022-08-14T01:21:11.900Z,150593.34
2022-08-14T01:26:23.572Z,150610.16
2022-08-14T01:31:42.600Z,150607.59
2022-08-14T01:36:46.266Z,150598.50
2022-08-14T01:41:56.323Z,150580.31
2022-08-14T01:47:12.457Z,150544.06
2022-08-14T01:52:34.461Z,150513.00
2022-08-14T01:58:02.203Z,150538.91
2022-08-14T02:03:13.826Z,150518.19
2022-08-14T02:08:22.283Z,150500.06
2022-08-14T02:13:39.726Z,150518.19
2022-08-14T02:18:47.283Z,150492.28
2022-08-14T02:23:54.852Z,150497.47
2022-08-14T02:29:05.473Z,150511.69
2022-08-14T02:34:14.795Z,150541.50
2022-08-14T02:39:25.379Z,150563.50
2022-08-14T02:44:39.522Z,150559.59
2022-08-14T02:49:43.219Z,150524.63
2022-08-14T02:54:46.947Z,150500.06
2022-08-14T02:59:52.808Z,150540.22
2022-08-14T03:04:56.273Z,150523.34
2022-08-14T03:10:26.899Z,150541.50
2022-08-14T03:15:58.714Z,150529.84
2022-08-14T03:21:04.069Z,150558.28
2022-08-14T03:26:12.944Z,150541.50
2022-08-14T03:31:27.906Z,150502.63
2022-08-14T03:37:51.035Z,150501.34
2022-08-14T03:42:01.545Z,150518.19
2022-08-14T03:47:07.088Z,150525.94
2022-08-14T03:52:27.989Z,150569.94
2022-08-14T03:57:37.244Z,150576.44
2022-08-14T04:02:46.773Z,150564.78
2022-08-14T04:08:08.197Z,150551.84
2022-08-14T04:13:18.402Z,150606.28
2022-08-14T04:18:23.211Z,150625.72
2022-08-14T04:23:32.652Z,150603.72
2022-08-14T04:29:08.113Z,150632.19
2022-08-14T04:34:05.457Z,150615.38
2022-08-14T04:39:28.736Z,150624.38
2022-08-14T04:44:36.731Z,150639.97
2022-08-14T04:49:56.680Z,150625.72
2022-08-14T04:55:01.387Z,150654.19
2022-08-14T05:00:07.842Z,150651.63
2022-08-14T05:05:22.110Z,150643.84
2022-08-14T05:10:32.362Z,150603.72
2022-08-14T05:15:39.387Z,150525.94
2022-08-14T05:21:57.613Z,150566.09
2022-08-14T05:26:18.373Z,150580.31
2022-08-14T05:31:21.731Z,150608.88
2022-08-14T05:36:26.960Z,150603.72
2022-08-14T05:41:52.426Z,150642.53
2022-08-14T05:46:56.567Z,150676.22
2022-08-14T05:52:01.597Z,150680.13
2022-08-14T05:57:05.800Z,150703.44
2022-08-14T06:02:11.379Z,150676.22
2022-08-14T06:07:16.531Z,150711.19
2022-08-14T06:12:55.086Z,150733.19
2022-08-14T06:17:47.297Z,150785.03
2022-08-14T06:23:03.589Z,150849.88
2022-08-14T06:28:07.100Z,150932.84
2022-08-14T06:35:02.364Z,150953.59
2022-08-14T06:38:55.857Z,150932.84
2022-08-14T06:43:59.439Z,150934.13
2022-08-14T06:49:02.869Z,150901.72
2022-08-14T06:54:08.416Z,150925.06
2022-08-14T06:59:19.539Z,150988.56
2022-08-14T07:04:40.763Z,151010.63
2022-08-14T07:09:51.072Z,151035.22
2022-08-14T07:14:58.261Z,151080.66
2022-08-14T07:20:07.229Z,151094.97
2022-08-14T07:25:12.735Z,151078.09
2022-08-14T07:30:34.423Z,151124.75
2022-08-14T07:35:57.807Z,151128.69
2022-08-14T07:41:11.729Z,151235.06
2022-08-14T07:46:21.208Z,151260.97
2022-08-14T07:51:36.759Z,151215.59
2022-08-14T07:56:48.216Z,151153.31
2022-08-14T08:01:54.190Z,151120.88
2022-08-14T08:07:03.531Z,151088.47
2022-08-14T08:12:15.043Z,151101.41
2022-08-14T08:17:20.490Z,151162.41
2022-08-14T08:22:23.919Z,151197.41
2022-08-14T08:27:32.157Z,151244.09
2022-08-14T08:32:40.269Z,151209.06
2022-08-14T08:37:43.833Z,151211.66
2022-08-14T08:42:53.184Z,151183.16
2022-08-14T08:47:56.972Z,151218.16
2022-08-14T08:53:02.513Z,151362.22
2022-08-14T08:58:16.674Z,151446.59
2022-08-14T09:03:27.384Z,151497.28
2022-08-14T09:08:33.353Z,151424.53
2022-08-14T09:13:38.273Z,151423.25
2022-08-14T09:18:42.453Z,151414.16
2022-08-14T09:24:27.482Z,151445.31
2022-08-14T09:29:12.295Z,151455.69
2022-08-14T09:34:27.224Z,151516.72
2022-08-14T09:39:43.985Z,151680.34
2022-08-14T09:45:08.896Z,152100.31
2022-08-14T09:50:26.011Z,152366.97
2022-08-14T09:55:41.431Z,152472.47
2022-08-14T10:00:48.525Z,152352.69
2022-08-14T10:05:51.888Z,152203.03
2022-08-14T10:11:01.549Z,152169.22
2022-08-14T10:16:07.941Z,152126.28
2022-08-14T10:21:25.726Z,152180.91
2022-08-14T10:26:32.100Z,151978.06
2022-08-14T10:31:45.572Z,152066.44
2022-08-14T10:37:14.517Z,151898.72
2022-08-14T10:42:21.080Z,151957.25
2022-08-14T10:47:41.512Z,152125.00
2022-08-14T10:53:02.311Z,152092.50
2022-08-14T10:58:07.997Z,152088.59
2022-08-14T11:03:26.766Z,152031.34
2022-08-14T11:08:39.476Z,152260.28
2022-08-14T11:13:46.450Z,152286.34
2022-08-14T11:18:51.834Z,152197.84
2022-08-14T11:24:00.421Z,152151.03
2022-08-14T11:29:06.014Z,152363.09
2022-08-14T11:34:32.228Z,152630.00
2022-08-14T11:39:38.022Z,152606.53
2022-08-14T11:44:46.712Z,152639.13
2022-08-14T11:49:52.174Z,152564.88
2022-08-14T11:55:00.553Z,152356.56
2022-08-14T12:00:08.429Z,152387.81
2022-08-14T12:05:14.631Z,152602.66
2022-08-14T12:10:25.435Z,152804.59
2022-08-14T12:15:33.982Z,152833.25
2022-08-14T12:20:45.544Z,152781.09
2022-08-14T12:26:01.350Z,152928.38
2022-08-14T12:31:20.442Z,152786.31
2022-08-14T12:36:27.953Z,152962.25
2022-08-14T12:41:37.205Z,152897.09
2022-08-14T12:46:43.487Z,152928.38
2022-08-14T12:51:59.889Z,152869.72
2022-08-14T12:57:09.057Z,152686.03
2022-08-14T13:02:26.063Z,152864.53
2022-08-14T13:07:32.642Z,153258.28
2022-08-14T13:12:56.594Z,153219.13
2022-08-14T13:18:04.869Z,153113.50
2022-08-14T13:23:11.224Z,152977.91
2022-08-14T13:28:30.177Z,152855.41
2022-08-14T13:33:38.312Z,152873.66
2022-08-14T13:38:52.023Z,153348.31
2022-08-14T13:43:59.364Z,152783.69
2022-08-14T13:49:03.709Z,153271.31
2022-08-14T13:54:11.619Z,153854.81
2022-08-14T13:59:20.191Z,153647.19
2022-08-14T14:04:25.079Z,153540.16
2022-08-14T14:09:43.911Z,153202.22
2022-08-14T14:14:54.941Z,153065.25
2022-08-14T14:20:00.335Z,153490.53
2022-08-14T14:25:10.218Z,153610.66
2022-08-14T14:30:46.237Z,154373.81
2022-08-14T14:35:46.547Z,154108.34
2022-08-14T14:41:00.444Z,153903.22
2022-08-14T14:46:09.506Z,153484.00
2022-08-14T14:51:14.681Z,153323.53
2022-08-14T14:56:48.378Z,153386.16
2022-08-14T15:01:49.026Z,154117.50
2022-08-14T15:06:53.119Z,153502.28
2022-08-14T15:11:58.019Z,154069.16
2022-08-14T15:17:02.077Z,154117.50
2022-08-14T15:22:06.568Z,153559.69
2022-08-14T15:27:12.503Z,153148.75
2022-08-14T15:32:21.142Z,152923.16
2022-08-14T15:37:32.628Z,152692.53
2022-08-14T15:42:39.448Z,152835.84
2022-08-14T15:47:43.037Z,152715.97
2022-08-14T15:52:46.738Z,152633.94
2022-08-14T15:58:03.617Z,152616.94
2022-08-14T16:03:15.674Z,152587.00
2022-08-14T16:08:24.386Z,152593.53
2022-08-14T16:13:42.099Z,152618.25
2022-08-14T16:18:47.468Z,152710.78
2022-08-14T16:23:53.711Z,152734.22
2022-08-14T16:29:02.574Z,152739.41
2022-08-14T16:34:44.653Z,152705.53
2022-08-14T16:39:31.048Z,152630.00
2022-08-14T16:44:40.989Z,152553.16
2022-08-14T16:50:05.097Z,152519.31
2022-08-14T16:55:13.875Z,152508.91
2022-08-14T17:00:33.033Z,152421.63
2022-08-14T17:05:47.960Z,152339.69
2022-08-14T17:11:11.052Z,152286.34
2022-08-14T17:16:25.142Z,152166.63
2022-08-14T17:21:37.523Z,152125.00
2022-08-14T17:26:44.440Z,152093.78
2022-08-14T17:31:58.536Z,152043.06
2022-08-14T17:37:05.368Z,152054.75
2022-08-14T17:42:16.983Z,152031.34
2022-08-14T17:47:38.563Z,152027.41
2022-08-14T17:52:50.091Z,151984.53
2022-08-14T17:57:54.788Z,151989.75
2022-08-14T18:03:00.277Z,151968.94
2022-08-14T18:08:33.825Z,151948.16
2022-08-14T18:13:50.908Z,151918.25
2022-08-14T18:18:56.603Z,151857.13
2022-08-14T18:24:00.643Z,151850.63
2022-08-14T18:34:32.283Z,151771.38
2022-08-14T18:40:01.187Z,151746.69
2022-08-14T18:45:12.822Z,151679.06
2022-08-14T18:50:27.810Z,151672.59
2022-08-14T18:55:53.276Z,151651.81
2022-08-14T19:00:59.658Z,151597.28
2022-08-14T19:06:05.926Z,151588.16
2022-08-14T19:11:50.347Z,151562.22
2022-08-14T19:16:54.915Z,151537.50
2022-08-14T19:22:02.000Z,151523.25
2022-08-14T19:27:23.628Z,151476.47
2022-08-14T19:32:40.196Z,151445.31
2022-08-14T19:37:48.434Z,151453.13
2022-08-14T19:42:58.267Z,151444.03
2022-08-14T19:48:03.261Z,151385.56
2022-08-14T19:53:16.617Z,151358.34
2022-08-14T19:58:30.190Z,151363.53
2022-08-14T20:03:59.634Z,151338.88
2022-08-14T20:11:06.714Z,151315.53
2022-08-14T20:14:31.357Z,151322.03
2022-08-14T20:19:37.984Z,151310.31
2022-08-14T20:24:47.321Z,151275.22
2022-08-14T20:30:29.820Z,151257.09
2022-08-14T20:35:36.258Z,151257.09
2022-08-14T20:40:50.417Z,151253.19
2022-08-14T20:45:54.204Z,151249.31
2022-08-14T20:50:58.577Z,151200.00
2022-08-14T20:56:28.053Z,151192.25
2022-08-14T21:01:38.555Z,151200.00
2022-08-14T21:07:23.449Z,151183.16
2022-08-14T21:12:06.241Z,151163.69
2022-08-14T21:17:31.212Z,151176.66
2022-08-14T21:22:34.637Z,151167.56
2022-08-14T21:27:39.931Z,151129.97
2022-08-14T21:33:02.119Z,151106.63
2022-08-14T21:38:16.890Z,151096.25
2022-08-14T21:43:24.755Z,151101.41
2022-08-14T21:48:31.837Z,151091.03
2022-08-14T21:53:36.869Z,151091.03
2022-08-14T21:59:04.545Z,151085.88
2022-08-14T22:04:34.758Z,151075.50
2022-08-14T22:09:36.760Z,151065.13
2022-08-14T22:14:43.347Z,151062.53
2022-08-14T22:19:54.994Z,151052.13
2022-08-14T22:25:01.174Z,151050.81
2022-08-14T22:30:07.513Z,151070.28
2022-08-14T22:35:23.309Z,151066.41
2022-08-14T22:41:01.907Z,151070.28
2022-08-14T22:45:55.791Z,151080.66
2022-08-14T22:51:01.352Z,151080.66
2022-08-14T22:56:05.273Z,151087.16
2022-08-14T23:01:57.025Z,151097.53
2022-08-14T23:07:02.715Z,151091.03
2022-08-14T23:12:27.438Z,151088.47
2022-08-14T23:17:40.466Z,151082.00
2022-08-14T23:22:47.419Z,151062.53
2022-08-14T23:28:02.962Z,151039.16
2022-08-14T23:33:07.517Z,151026.16
2022-08-14T23:38:29.852Z,151041.75
2022-08-14T23:43:34.409Z,151008.03
2022-08-14T23:48:40.414Z,151014.50
2022-08-14T23:53:53.217Z,151011.91
2022-08-14T23:58:57.174Z,150974.34
